Graham, Kentucky
Current Conditions -  °F | °C
As of 7:55 AM on Monday 24 Nov 2014 (Local Time) from K2I0 Reporting Station
Overcast Overcast  
Wind Chill: 52°   Ceiling: 1900
Heat Index: 52°   Visibility: 10mi
Dew Point: 46°   Wind: 24mph
Humidity: 80%   Direction: 260°W
Pressure: 29.58"   Gusts: 32mph
Location:  37.25°N, 87.28°W
Report Text: K2I0 241355Z AUTO 26021G28KT 10SM BKN019 BKN026 OVC031 11/08 A2958 RMK AO2 T01100077
Loading
Personal Weather Stations






























Interactive Weather Map New forecast layout! Learn more

10-Day Weather Forecast

Advertisements
Track Severe Weather on mobile